createdAt,value
2023-04-25T00:00:21.580Z,99.90
2023-04-25T00:03:10.152Z,99.90
2023-04-25T00:05:38.262Z,99.90
2023-04-25T00:08:05.877Z,99.90
2023-04-25T00:10:33.204Z,99.90
2023-04-25T00:13:03.162Z,99.90
2023-04-25T00:15:33.332Z,99.90
2023-04-25T00:18:00.409Z,99.90
2023-04-25T00:20:27.733Z,99.90
2023-04-25T00:22:56.891Z,99.90
2023-04-25T00:25:24.525Z,99.90
2023-04-25T00:27:51.461Z,99.90
2023-04-25T00:30:18.889Z,99.90
2023-04-25T00:32:46.998Z,99.90
2023-04-25T00:35:14.334Z,99.90
2023-04-25T00:37:41.500Z,99.90
2023-04-25T00:40:09.356Z,99.90
2023-04-25T00:42:37.916Z,99.90
2023-04-25T00:45:10.179Z,99.90
2023-04-25T00:47:37.366Z,99.90
2023-04-25T00:50:05.049Z,99.90
2023-04-25T00:52:32.083Z,99.90
2023-04-25T00:55:00.343Z,99.90
2023-04-25T00:57:27.867Z,99.90
2023-04-25T00:59:55.870Z,99.90
2023-04-25T01:02:23.113Z,99.90
2023-04-25T01:04:50.605Z,99.90
2023-04-25T01:07:17.817Z,99.90
2023-04-25T01:09:45.380Z,99.90
2023-04-25T01:12:12.640Z,99.90
2023-04-25T01:14:40.236Z,99.90
2023-04-25T01:17:08.748Z,99.90
2023-04-25T01:19:36.651Z,99.90
2023-04-25T01:22:04.768Z,99.90
2023-04-25T01:24:35.143Z,99.90
2023-04-25T01:27:03.188Z,99.90
2023-04-25T01:29:31.201Z,99.90
2023-04-25T01:31:59.657Z,99.90
2023-04-25T01:34:28.201Z,99.90
2023-04-25T01:36:55.342Z,99.90
2023-04-25T01:41:50.487Z,99.90
2023-04-25T01:44:17.946Z,99.90
2023-04-25T01:46:45.137Z,97.40
2023-04-25T01:49:12.631Z,94.20
2023-04-25T01:51:39.709Z,94.10
2023-04-25T01:54:07.019Z,94.70
2023-04-25T01:56:37.399Z,95.50
2023-04-25T01:59:05.987Z,96.30
2023-04-25T02:01:33.652Z,96.20
2023-04-25T02:04:01.248Z,92.80
2023-04-25T02:06:28.470Z,90.00
2023-04-25T02:08:55.865Z,86.10
2023-04-25T02:11:22.829Z,82.00
2023-04-25T02:13:50.489Z,75.90
2023-04-25T02:16:17.992Z,74.60
2023-04-25T02:18:46.004Z,75.90
2023-04-25T02:21:12.977Z,77.20
2023-04-25T02:23:40.277Z,79.90
2023-04-25T02:26:07.316Z,83.80
2023-04-25T02:28:34.832Z,82.90
2023-04-25T02:31:01.818Z,79.70
2023-04-25T02:33:29.115Z,80.20
2023-04-25T02:35:56.147Z,83.40
2023-04-25T02:38:23.446Z,84.20
2023-04-25T02:40:50.509Z,88.40
2023-04-25T02:43:17.996Z,91.10
2023-04-25T02:45:44.975Z,93.10
2023-04-25T02:48:12.669Z,92.20
2023-04-25T02:50:39.655Z,92.30
2023-04-25T02:53:07.088Z,92.20
2023-04-25T02:55:34.150Z,90.90
2023-04-25T02:58:01.438Z,84.70
2023-04-25T03:00:28.700Z,80.40
2023-04-25T03:02:56.646Z,74.20
2023-04-25T03:05:23.660Z,66.50
2023-04-25T03:07:51.154Z,63.40
2023-04-25T03:10:18.263Z,54.60
2023-04-25T03:12:45.684Z,32.30
2023-04-25T03:15:12.631Z,25.20
2023-04-25T03:17:39.926Z,22.70
2023-04-25T03:20:09.303Z,20.40
2023-04-25T03:22:36.871Z,17.40
2023-04-25T03:25:04.166Z,8.40
2023-04-25T03:27:31.423Z,6.10
2023-04-25T03:29:58.377Z,3.10
2023-04-25T03:32:26.016Z,1.60
2023-04-25T03:34:53.102Z,1.00
2023-04-25T03:37:20.391Z,1.00
2023-04-25T03:39:47.322Z,1.00
2023-04-25T03:42:14.555Z,1.00
2023-04-25T03:44:41.903Z,1.00
2023-04-25T03:47:09.615Z,1.00
2023-04-25T03:49:37.144Z,1.00
2023-04-25T03:52:04.917Z,1.00
2023-04-25T03:54:31.973Z,1.00
2023-04-25T03:56:59.298Z,1.00
2023-04-25T03:59:27.135Z,1.00
2023-04-25T04:01:54.854Z,1.00
2023-04-25T04:04:22.187Z,1.00
2023-04-25T04:06:49.764Z,1.00
2023-04-25T04:09:17.247Z,1.00
2023-04-25T04:11:44.853Z,1.00
2023-04-25T04:14:11.864Z,1.00
2023-04-25T04:16:39.538Z,99.90
2023-04-25T04:19:06.698Z,99.90
2023-04-25T04:21:34.657Z,99.90
2023-04-25T04:24:01.745Z,99.90
2023-04-25T04:26:28.986Z,99.90
2023-04-25T04:28:56.073Z,99.90
2023-04-25T04:31:23.501Z,99.90
2023-04-25T04:33:52.077Z,99.90
2023-04-25T04:36:23.998Z,99.90
2023-04-25T04:38:50.934Z,99.90
2023-04-25T04:41:18.384Z,99.90
2023-04-25T04:43:45.767Z,99.90
2023-04-25T04:46:13.862Z,99.90
2023-04-25T04:51:08.633Z,99.90
2023-04-25T04:53:35.943Z,99.90
2023-04-25T04:56:03.449Z,99.90
2023-04-25T04:58:30.981Z,19.80
2023-04-25T05:00:58.579Z,1.00
2023-04-25T05:03:25.797Z,1.00
2023-04-25T05:05:53.124Z,46.00
2023-04-25T05:08:20.317Z,1.00
2023-04-25T05:10:47.622Z,99.90
2023-04-25T05:13:14.576Z,99.90
2023-04-25T05:15:41.935Z,1.00
2023-04-25T05:18:09.044Z,1.00
2023-04-25T05:20:36.428Z,99.90
2023-04-25T05:23:03.608Z,99.90
2023-04-25T05:25:30.891Z,99.90
2023-04-25T05:27:58.243Z,1.00
2023-04-25T05:30:25.558Z,99.90
2023-04-25T05:32:52.590Z,99.90
2023-04-25T05:35:20.036Z,99.90
2023-04-25T05:37:47.057Z,99.90
2023-04-25T05:40:14.577Z,99.90
2023-04-25T05:42:41.549Z,1.00
2023-04-25T05:45:09.139Z,99.90
2023-04-25T05:47:36.306Z,99.90
2023-04-25T05:50:03.806Z,99.90
2023-04-25T05:52:30.797Z,3.90
2023-04-25T05:54:58.086Z,99.90
2023-04-25T05:57:26.655Z,99.90
2023-04-25T05:59:55.060Z,99.90
2023-04-25T06:02:23.119Z,99.90
2023-04-25T06:04:52.142Z,99.90
2023-04-25T06:07:20.937Z,99.90
2023-04-25T06:09:48.687Z,99.90
2023-04-25T06:12:15.633Z,99.90
2023-04-25T06:14:42.876Z,99.90
2023-04-25T06:17:09.835Z,99.90
2023-04-25T06:19:37.374Z,99.90
2023-04-25T06:24:32.492Z,99.90
2023-04-25T06:26:59.491Z,99.90
2023-04-25T06:29:27.046Z,99.90
2023-04-25T06:31:54.495Z,99.90
2023-04-25T06:34:22.336Z,99.90
2023-04-25T06:36:49.668Z,99.90
2023-04-25T06:39:17.863Z,99.90
2023-04-25T06:41:44.781Z,99.90
2023-04-25T06:44:12.023Z,99.90
2023-04-25T06:46:39.047Z,99.90
2023-04-25T06:49:06.477Z,99.90
2023-04-25T06:51:33.634Z,99.90
2023-04-25T06:54:01.178Z,99.90
2023-04-25T06:56:30.694Z,99.90
2023-04-25T06:58:58.006Z,99.90
2023-04-25T07:01:25.164Z,99.90
2023-04-25T07:03:52.810Z,99.90
2023-04-25T07:06:19.937Z,99.90
2023-04-25T07:08:47.407Z,99.90
2023-04-25T07:11:14.573Z,99.90
2023-04-25T07:13:41.867Z,99.90
2023-04-25T07:16:08.836Z,99.90
2023-04-25T07:18:36.241Z,99.90
2023-04-25T07:21:03.454Z,99.90
2023-04-25T07:23:31.201Z,97.80
2023-04-25T07:25:58.237Z,96.30
2023-04-25T07:28:25.652Z,94.70
2023-04-25T07:30:52.639Z,93.40
2023-04-25T07:33:21.545Z,93.60
2023-04-25T07:35:48.698Z,94.80
2023-04-25T07:38:15.950Z,95.70
2023-04-25T07:40:43.266Z,95.60
2023-04-25T07:43:13.313Z,98.30
2023-04-25T07:45:40.395Z,98.00
2023-04-25T07:48:07.695Z,96.90
2023-04-25T07:50:34.658Z,96.30
2023-04-25T07:53:02.017Z,96.00
2023-04-25T07:55:29.320Z,96.30
2023-04-25T07:57:56.277Z,96.70
2023-04-25T08:00:24.043Z,97.70
2023-04-25T08:02:52.260Z,98.90
2023-04-25T08:05:22.731Z,99.00
2023-04-25T08:07:51.081Z,95.70
2023-04-25T08:10:18.605Z,92.80
2023-04-25T08:12:45.642Z,92.40
2023-04-25T08:15:14.803Z,92.30
2023-04-25T08:17:42.205Z,92.20
2023-04-25T08:20:10.008Z,85.70
2023-04-25T08:22:37.098Z,85.10
2023-04-25T08:25:04.792Z,89.80
2023-04-25T08:27:31.772Z,91.20
2023-04-25T08:29:59.777Z,91.30
2023-04-25T08:32:28.465Z,84.30
2023-04-25T08:34:56.982Z,78.00
2023-04-25T08:37:23.926Z,79.10
2023-04-25T08:39:53.383Z,81.40
2023-04-25T08:42:22.729Z,83.90
2023-04-25T08:44:51.053Z,89.00
2023-04-25T08:47:22.894Z,86.70
2023-04-25T08:49:52.377Z,77.30
2023-04-25T08:52:23.803Z,73.20
2023-04-25T08:54:53.740Z,73.90
2023-04-25T08:57:22.840Z,76.80
2023-04-25T08:59:50.404Z,77.20
2023-04-25T09:02:19.850Z,75.90
2023-04-25T09:04:47.775Z,74.40
2023-04-25T09:07:19.577Z,76.70
2023-04-25T09:09:48.530Z,80.50
2023-04-25T09:12:15.648Z,82.70
2023-04-25T09:14:43.964Z,80.60
2023-04-25T09:17:11.297Z,79.30
2023-04-25T09:19:42.516Z,80.20
2023-04-25T09:22:10.111Z,82.80
2023-04-25T09:24:42.578Z,83.60
2023-04-25T09:27:18.720Z,86.20
2023-04-25T09:29:46.123Z,87.10
2023-04-25T09:32:24.426Z,87.60
2023-04-25T09:34:57.192Z,86.20
2023-04-25T09:37:29.728Z,86.70
2023-04-25T09:40:06.363Z,83.80
2023-04-25T09:42:35.587Z,85.50
2023-04-25T09:45:04.854Z,87.50
2023-04-25T09:47:33.162Z,87.50
2023-04-25T09:50:00.625Z,88.50
2023-04-25T09:52:27.668Z,90.00
2023-04-25T09:54:55.338Z,89.30
2023-04-25T09:57:26.946Z,89.90
2023-04-25T09:59:56.426Z,91.20
2023-04-25T10:02:26.251Z,90.80
2023-04-25T10:04:56.297Z,91.90
2023-04-25T10:07:27.670Z,91.80
2023-04-25T10:10:05.438Z,91.50
2023-04-25T10:12:34.181Z,91.70
2023-04-25T10:15:02.523Z,91.70
2023-04-25T10:17:30.157Z,92.60
2023-04-25T10:19:57.859Z,91.80
2023-04-25T10:22:34.068Z,88.40
2023-04-25T10:25:04.958Z,89.00
2023-04-25T10:27:32.793Z,90.70
2023-04-25T10:30:13.575Z,91.50
2023-04-25T10:32:40.666Z,91.90
2023-04-25T10:35:19.382Z,92.50
2023-04-25T10:38:08.323Z,92.70
2023-04-25T10:40:35.969Z,92.80
2023-04-25T10:43:36.377Z,92.80
2023-04-25T10:46:16.596Z,93.30
2023-04-25T10:48:50.770Z,92.90
2023-04-25T10:51:53.928Z,93.50
2023-04-25T10:54:26.136Z,93.60
2023-04-25T10:56:54.346Z,92.40
2023-04-25T10:59:26.022Z,92.60
2023-04-25T11:01:56.148Z,92.30
2023-04-25T11:04:35.802Z,92.50
2023-04-25T11:07:09.305Z,92.40
2023-04-25T11:09:36.899Z,92.70
2023-04-25T11:12:04.387Z,92.50
2023-04-25T11:14:31.506Z,92.70
2023-04-25T11:17:00.717Z,91.40
2023-04-25T11:19:29.357Z,91.70
2023-04-25T11:22:01.284Z,92.30
2023-04-25T11:24:32.581Z,92.50
2023-04-25T11:27:03.230Z,89.70
2023-04-25T11:29:32.138Z,90.10
2023-04-25T11:32:00.992Z,90.70
2023-04-25T11:34:31.736Z,91.00
2023-04-25T11:37:00.859Z,91.70
2023-04-25T11:39:28.993Z,91.90
2023-04-25T11:41:56.972Z,92.50
2023-04-25T11:44:24.460Z,92.70
2023-04-25T11:46:52.055Z,91.90
2023-04-25T11:49:19.441Z,92.40
2023-04-25T11:51:48.841Z,92.10
2023-04-25T11:54:16.462Z,91.50
2023-04-25T11:56:45.455Z,92.50
2023-04-25T11:59:13.989Z,92.80
2023-04-25T12:01:48.699Z,92.40
2023-04-25T12:04:24.148Z,91.70
2023-04-25T12:06:56.515Z,90.20
2023-04-25T12:09:34.628Z,90.30
2023-04-25T12:12:05.370Z,89.70
2023-04-25T12:14:36.777Z,90.10
2023-04-25T12:17:06.481Z,91.10
2023-04-25T12:19:35.309Z,91.20
2023-04-25T12:22:04.237Z,90.60
2023-04-25T12:24:37.097Z,90.80
2023-04-25T12:27:09.282Z,91.70
2023-04-25T12:32:07.210Z,90.90
2023-04-25T12:34:36.735Z,91.10
2023-04-25T12:37:04.386Z,91.40
2023-04-25T12:39:31.612Z,91.60
2023-04-25T12:42:00.165Z,90.70
2023-04-25T12:44:27.140Z,90.90
2023-04-25T12:46:55.639Z,89.70
2023-04-25T12:49:23.369Z,90.10
2023-04-25T12:51:52.535Z,88.10
2023-04-25T12:54:19.827Z,85.90
2023-04-25T12:56:47.363Z,86.50
2023-04-25T12:59:14.402Z,86.40
2023-04-25T13:01:41.877Z,85.70
2023-04-25T13:04:08.959Z,87.00
2023-04-25T13:06:36.480Z,87.90
2023-04-25T13:09:04.460Z,88.60
2023-04-25T13:11:32.479Z,88.40
2023-04-25T13:13:59.629Z,88.80
2023-04-25T13:16:26.978Z,90.40
2023-04-25T13:18:53.944Z,91.00
2023-04-25T13:21:21.222Z,91.20
2023-04-25T13:23:49.732Z,91.10
2023-04-25T13:26:17.845Z,90.70
2023-04-25T13:28:45.250Z,90.50
2023-04-25T13:31:12.625Z,91.10
2023-04-25T13:33:39.672Z,91.60
2023-04-25T13:36:07.153Z,91.30
2023-04-25T13:38:34.253Z,91.30
2023-04-25T13:41:02.062Z,91.50
2023-04-25T13:43:29.087Z,91.00
2023-04-25T13:45:56.621Z,91.40
2023-04-25T13:48:25.041Z,91.20
2023-04-25T13:50:52.307Z,90.70
2023-04-25T13:53:19.310Z,90.30
2023-04-25T13:55:47.244Z,90.10
2023-04-25T13:58:14.610Z,90.20
2023-04-25T14:00:44.787Z,90.30
2023-04-25T14:03:12.200Z,91.30
2023-04-25T14:05:40.154Z,91.20
2023-04-25T14:08:08.974Z,90.10
2023-04-25T14:10:37.323Z,89.20
2023-04-25T14:13:05.703Z,87.60
2023-04-25T14:15:33.988Z,88.30
2023-04-25T14:18:01.839Z,87.70
2023-04-25T14:20:29.700Z,87.10
2023-04-25T14:22:58.194Z,88.10
2023-04-25T14:25:26.545Z,90.20
2023-04-25T14:27:53.749Z,88.50
2023-04-25T14:30:22.262Z,88.30
2023-04-25T14:32:51.040Z,88.80
2023-04-25T14:35:18.832Z,89.70
2023-04-25T14:37:46.037Z,90.40
2023-04-25T14:40:16.281Z,90.40
2023-04-25T14:42:43.768Z,90.40
2023-04-25T14:45:11.853Z,90.70
2023-04-25T14:47:39.087Z,91.40
2023-04-25T14:50:08.087Z,91.40
2023-04-25T14:52:36.450Z,91.50
2023-04-25T14:55:08.413Z,90.70
2023-04-25T14:57:36.394Z,90.60
2023-04-25T15:00:07.893Z,91.10
2023-04-25T15:02:35.780Z,90.70
2023-04-25T15:05:05.426Z,90.40
2023-04-25T15:07:32.586Z,90.60
2023-04-25T15:10:00.341Z,90.60
2023-04-25T15:12:29.261Z,90.10
2023-04-25T15:14:56.846Z,90.30
2023-04-25T15:17:24.520Z,87.40
2023-04-25T15:19:52.460Z,88.20
2023-04-25T15:22:19.458Z,89.10
2023-04-25T15:24:46.941Z,89.80
2023-04-25T15:27:14.767Z,90.40
2023-04-25T15:29:42.678Z,90.60
2023-04-25T15:32:09.792Z,90.90
2023-04-25T15:34:37.141Z,90.70
2023-04-25T15:37:04.184Z,90.30
2023-04-25T15:39:32.286Z,91.00
2023-04-25T15:41:59.323Z,91.60
2023-04-25T15:44:26.703Z,91.90
2023-04-25T15:46:55.165Z,92.10
2023-04-25T15:49:23.033Z,92.60
2023-04-25T15:51:50.454Z,92.40
2023-04-25T15:54:18.681Z,92.60
2023-04-25T15:56:45.944Z,93.10
2023-04-25T15:59:13.919Z,92.90
2023-04-25T16:01:41.024Z,92.20
2023-04-25T16:04:08.479Z,92.70
2023-04-25T16:06:35.794Z,93.00
2023-04-25T16:09:03.934Z,92.80
2023-04-25T16:11:31.090Z,93.40
2023-04-25T16:13:58.411Z,93.90
2023-04-25T16:16:26.447Z,93.90
2023-04-25T16:18:53.884Z,94.00
2023-04-25T16:21:21.301Z,94.40
2023-04-25T16:23:48.753Z,94.10
2023-04-25T16:26:16.060Z,94.50
2023-04-25T16:28:43.348Z,94.80
2023-04-25T16:31:10.538Z,94.70
2023-04-25T16:33:37.951Z,94.80
2023-04-25T16:36:05.311Z,94.70
2023-04-25T16:38:32.689Z,95.10
2023-04-25T16:40:59.760Z,95.10
2023-04-25T16:43:26.964Z,94.90
2023-04-25T16:45:54.165Z,95.30
2023-04-25T16:48:24.323Z,95.20
2023-04-25T16:50:52.911Z,95.50
2023-04-25T16:53:22.042Z,95.30
2023-04-25T16:55:49.186Z,95.90
2023-04-25T16:58:16.703Z,95.80
2023-04-25T17:00:44.146Z,96.30
2023-04-25T17:03:11.906Z,96.70
2023-04-25T17:05:39.351Z,97.00
2023-04-25T17:08:06.808Z,96.50
2023-04-25T17:10:33.921Z,96.80
2023-04-25T17:13:01.627Z,97.30
2023-04-25T17:15:28.669Z,96.60
2023-04-25T17:17:55.994Z,97.10
2023-04-25T17:20:23.087Z,97.20
2023-04-25T17:22:50.645Z,97.10
2023-04-25T17:25:17.831Z,97.70
2023-04-25T17:27:45.100Z,98.20
2023-04-25T17:30:12.779Z,98.80
2023-04-25T17:32:40.188Z,99.40
2023-04-25T17:35:07.632Z,99.90
2023-04-25T17:37:35.325Z,99.90
2023-04-25T17:40:03.824Z,99.90
2023-04-25T17:42:31.498Z,99.90
2023-04-25T17:44:58.564Z,99.90
2023-04-25T17:47:25.911Z,99.90
2023-04-25T17:49:53.090Z,99.90
2023-04-25T17:52:20.626Z,99.90
2023-04-25T17:54:49.621Z,99.90
2023-04-25T17:57:17.706Z,99.90
2023-04-25T17:59:44.716Z,99.90
2023-04-25T18:02:12.355Z,99.90
2023-04-25T18:04:40.158Z,99.90
2023-04-25T18:07:07.528Z,99.90
2023-04-25T18:09:35.116Z,99.90
2023-04-25T18:12:04.049Z,99.90
2023-04-25T18:14:31.702Z,99.90
2023-04-25T18:17:00.137Z,99.90
2023-04-25T18:19:27.191Z,99.90
2023-04-25T18:21:56.084Z,99.90
2023-04-25T18:24:26.960Z,99.90
2023-04-25T18:26:55.941Z,99.90
2023-04-25T18:29:32.941Z,99.90
2023-04-25T18:32:02.307Z,99.90
2023-04-25T18:34:29.427Z,99.90
2023-04-25T18:36:56.958Z,99.90
2023-04-25T18:39:27.255Z,99.90
2023-04-25T18:42:01.384Z,99.90
2023-04-25T18:44:33.728Z,1.00
2023-04-25T18:47:01.116Z,1.00
2023-04-25T18:49:28.174Z,55.80
2023-04-25T18:51:57.527Z,91.20
2023-04-25T18:54:24.546Z,82.70
2023-04-25T18:56:52.109Z,99.80
2023-04-25T18:59:19.481Z,99.90
2023-04-25T19:01:47.194Z,99.90
2023-04-25T19:04:14.627Z,99.90
2023-04-25T19:06:42.541Z,99.90
2023-04-25T19:09:10.275Z,99.90
2023-04-25T19:11:38.339Z,99.90
2023-04-25T19:14:05.404Z,99.90
2023-04-25T19:16:38.795Z,99.90
2023-04-25T19:19:07.307Z,99.90
2023-04-25T19:21:35.593Z,99.90
2023-04-25T19:24:06.967Z,99.90
2023-04-25T19:26:34.564Z,99.90
2023-04-25T19:29:09.650Z,99.90
2023-04-25T19:31:38.200Z,99.90
2023-04-25T19:34:07.606Z,99.90
2023-04-25T19:36:37.064Z,99.90
2023-04-25T19:39:04.626Z,99.90
2023-04-25T19:41:33.659Z,99.90
2023-04-25T19:44:01.279Z,99.90
2023-04-25T19:46:28.903Z,99.90
2023-04-25T19:48:55.911Z,38.80
2023-04-25T19:51:23.177Z,1.00
2023-04-25T19:53:50.961Z,99.90
2023-04-25T19:56:18.661Z,95.50
2023-04-25T19:58:45.764Z,96.40
2023-04-25T20:01:14.293Z,99.90
2023-04-25T20:03:41.503Z,99.90
2023-04-25T20:06:10.167Z,97.00
2023-04-25T20:08:37.327Z,20.00
2023-04-25T20:11:04.707Z,1.00
2023-04-25T20:13:31.816Z,4.80
2023-04-25T20:16:02.487Z,99.90
2023-04-25T20:18:29.705Z,99.90
2023-04-25T20:20:57.049Z,99.90
2023-04-25T20:23:24.099Z,36.20
2023-04-25T20:25:51.909Z,1.00
2023-04-25T20:28:19.007Z,1.00
2023-04-25T20:30:46.577Z,13.80
2023-04-25T20:33:13.758Z,33.60
2023-04-25T20:35:41.341Z,61.60
2023-04-25T20:38:08.332Z,59.00
2023-04-25T20:40:35.835Z,73.00
2023-04-25T20:43:05.188Z,90.00
2023-04-25T20:45:34.672Z,95.00
2023-04-25T20:48:02.782Z,99.90
2023-04-25T20:50:31.693Z,99.90
2023-04-25T20:52:59.155Z,99.90
2023-04-25T20:55:27.096Z,99.90
2023-04-25T20:57:54.111Z,99.90
2023-04-25T21:00:26.892Z,99.90
2023-04-25T21:02:54.587Z,99.90
2023-04-25T21:05:22.699Z,99.90
2023-04-25T21:07:50.479Z,99.90
2023-04-25T21:10:18.474Z,99.90
2023-04-25T21:12:49.121Z,99.90
2023-04-25T21:15:22.749Z,99.90
2023-04-25T21:17:51.184Z,94.30
2023-04-25T21:20:20.430Z,60.20
2023-04-25T21:22:50.965Z,48.40
2023-04-25T21:25:29.428Z,24.10
2023-04-25T21:27:56.788Z,1.00
2023-04-25T21:30:25.239Z,1.00
2023-04-25T21:32:52.835Z,38.20
2023-04-25T21:35:21.375Z,99.90
2023-04-25T21:37:48.635Z,99.90
2023-04-25T21:40:15.965Z,99.90
2023-04-25T21:42:44.649Z,99.90
2023-04-25T21:45:12.338Z,99.90
2023-04-25T21:47:39.483Z,99.90
2023-04-25T21:50:07.866Z,99.90
2023-04-25T21:52:36.419Z,99.90
2023-04-25T21:55:03.843Z,99.90
2023-04-25T21:57:30.871Z,99.90
2023-04-25T21:59:59.114Z,99.90
2023-04-25T22:02:27.419Z,99.90
2023-04-25T22:04:54.903Z,99.90
2023-04-25T22:07:22.002Z,99.90
2023-04-25T22:09:55.031Z,99.90
2023-04-25T22:12:23.516Z,99.90
2023-04-25T22:14:51.146Z,99.90
2023-04-25T22:17:18.812Z,99.90
2023-04-25T22:19:47.030Z,99.90
2023-04-25T22:22:14.285Z,99.90
2023-04-25T22:24:42.371Z,99.90
2023-04-25T22:27:12.743Z,99.90
2023-04-25T22:29:40.379Z,99.90
2023-04-25T22:32:07.606Z,99.90
2023-04-25T22:34:34.823Z,99.90
2023-04-25T22:37:02.116Z,99.90
2023-04-25T22:39:29.702Z,99.90
2023-04-25T22:41:56.785Z,99.90
2023-04-25T22:44:24.063Z,99.90
2023-04-25T22:46:53.119Z,99.90
2023-04-25T22:49:20.762Z,99.90
2023-04-25T22:51:53.990Z,99.90
2023-04-25T22:54:21.801Z,99.90
2023-04-25T22:56:48.818Z,99.90
2023-04-25T22:59:16.264Z,99.90
2023-04-25T23:01:43.798Z,99.90
2023-04-25T23:04:11.751Z,99.90
2023-04-25T23:06:40.330Z,99.90
2023-04-25T23:09:09.806Z,99.90
2023-04-25T23:11:37.358Z,99.90
2023-04-25T23:14:05.441Z,99.90
2023-04-25T23:16:32.367Z,99.90
2023-04-25T23:18:59.780Z,99.90
2023-04-25T23:21:26.852Z,99.90
2023-04-25T23:23:54.481Z,1.00
2023-04-25T23:26:21.957Z,1.00
2023-04-25T23:28:49.260Z,1.00
2023-04-25T23:31:16.465Z,1.00
2023-04-25T23:33:43.755Z,1.00
2023-04-25T23:36:19.949Z,12.50
2023-04-25T23:38:48.189Z,32.70
2023-04-25T23:41:15.187Z,55.30
2023-04-25T23:43:42.436Z,66.40
2023-04-25T23:46:09.614Z,77.40
2023-04-25T23:48:36.900Z,81.00
2023-04-25T23:51:03.955Z,95.30
2023-04-25T23:53:31.300Z,99.90
2023-04-25T23:55:58.216Z,99.90
2023-04-25T23:58:25.731Z,99.90
